createdAt,value
2022-10-09T00:01:21.395Z,14.36
2022-10-09T00:03:50.535Z,14.62
2022-10-09T00:06:24.030Z,15.01
2022-10-09T00:08:51.285Z,15.24
2022-10-09T00:11:24.231Z,15.27
2022-10-09T00:13:52.445Z,15.23
2022-10-09T00:16:21.322Z,15.14
2022-10-09T00:18:49.205Z,15.02
2022-10-09T00:21:26.694Z,14.90
2022-10-09T00:23:56.290Z,14.80
2022-10-09T00:26:23.759Z,14.74
2022-10-09T00:28:51.274Z,14.69
2022-10-09T00:31:19.451Z,14.66
2022-10-09T00:33:46.865Z,14.61
2022-10-09T00:36:17.774Z,14.56
2022-10-09T00:38:45.742Z,14.55
2022-10-09T00:41:19.923Z,14.47
2022-10-09T00:43:56.132Z,14.72
2022-10-09T00:46:55.948Z,15.16
2022-10-09T00:49:32.005Z,15.47
2022-10-09T00:52:03.352Z,15.50
2022-10-09T00:54:35.008Z,15.44
2022-10-09T00:57:02.440Z,15.36
2022-10-09T00:59:31.460Z,15.29
2022-10-09T01:01:58.857Z,15.20
2022-10-09T01:04:26.395Z,15.06
2022-10-09T01:07:08.782Z,15.01
2022-10-09T01:10:02.453Z,14.95
2022-10-09T01:12:38.616Z,14.88
2022-10-09T01:15:24.754Z,14.78
2022-10-09T01:18:05.486Z,14.70
2022-10-09T01:20:32.422Z,14.65
2022-10-09T01:23:05.361Z,14.53
2022-10-09T01:25:57.339Z,14.77
2022-10-09T01:28:29.235Z,15.22
2022-10-09T01:31:01.612Z,15.42
2022-10-09T01:33:30.720Z,15.41
2022-10-09T01:35:59.967Z,15.27
2022-10-09T01:38:29.139Z,15.17
2022-10-09T01:40:57.135Z,15.06
2022-10-09T01:43:24.081Z,14.92
2022-10-09T01:48:05.906Z,14.22
2022-10-09T01:50:38.362Z,14.51
2022-10-09T01:53:11.141Z,14.45
2022-10-09T01:55:57.440Z,14.37
2022-10-09T01:58:43.741Z,14.26
2022-10-09T02:01:17.175Z,14.10
2022-10-09T02:03:48.976Z,14.42
2022-10-09T02:06:18.707Z,14.87
2022-10-09T02:08:54.114Z,15.22
2022-10-09T02:11:30.313Z,15.23
2022-10-09T02:13:59.101Z,15.12
2022-10-09T02:16:37.365Z,15.02
2022-10-09T02:19:11.740Z,14.93
2022-10-09T02:22:02.741Z,14.86
2022-10-09T02:24:30.300Z,14.69
2022-10-09T02:26:58.685Z,14.57
2022-10-09T02:29:25.724Z,14.52
2022-10-09T02:31:52.775Z,14.44
2022-10-09T02:34:20.843Z,14.33
2022-10-09T02:36:48.200Z,14.49
2022-10-09T02:39:15.143Z,14.86
2022-10-09T02:41:43.009Z,15.12
2022-10-09T02:44:10.060Z,15.18
2022-10-09T02:46:38.062Z,15.12
2022-10-09T02:49:06.098Z,15.05
2022-10-09T02:51:33.452Z,14.94
2022-10-09T02:54:00.603Z,14.81
2022-10-09T02:56:28.473Z,14.66
2022-10-09T02:58:55.620Z,14.52
2022-10-09T03:01:23.112Z,14.42
2022-10-09T03:03:51.659Z,14.27
2022-10-09T03:06:23.632Z,14.10
2022-10-09T03:08:52.318Z,14.39
2022-10-09T03:11:22.223Z,14.89
2022-10-09T03:13:49.577Z,15.12
2022-10-09T03:16:23.343Z,15.13
2022-10-09T03:18:51.996Z,15.08
2022-10-09T03:21:26.903Z,15.02
2022-10-09T03:23:55.585Z,14.89
2022-10-09T03:26:26.830Z,14.76
2022-10-09T03:28:55.312Z,14.64
2022-10-09T03:31:50.420Z,14.51
2022-10-09T03:34:12.140Z,14.38
2022-10-09T03:36:39.806Z,14.29
2022-10-09T03:39:06.956Z,14.14
2022-10-09T03:41:33.896Z,14.35
2022-10-09T03:44:00.851Z,14.78
2022-10-09T03:46:27.798Z,15.04
2022-10-09T03:48:55.046Z,15.07
2022-10-09T03:51:21.885Z,14.99
2022-10-09T03:53:48.725Z,14.86
2022-10-09T03:56:15.669Z,14.72
2022-10-09T03:58:42.515Z,14.63
2022-10-09T04:01:09.643Z,14.51
2022-10-09T04:03:37.121Z,14.43
2022-10-09T04:06:04.886Z,14.35
2022-10-09T04:08:31.732Z,14.29
2022-10-09T04:10:59.901Z,14.19
2022-10-09T04:13:27.884Z,14.40
2022-10-09T04:15:56.633Z,14.82
2022-10-09T04:18:24.832Z,15.07
2022-10-09T04:20:54.952Z,15.14
2022-10-09T04:23:25.889Z,15.14
2022-10-09T04:25:54.370Z,15.08
2022-10-09T04:28:22.918Z,15.01
2022-10-09T04:30:49.796Z,14.92
2022-10-09T04:33:17.356Z,14.83
2022-10-09T04:35:45.429Z,14.73
2022-10-09T04:38:12.373Z,14.79
2022-10-09T04:40:40.547Z,14.85
2022-10-09T04:43:07.491Z,14.66
2022-10-09T04:45:40.037Z,14.59
2022-10-09T04:48:07.130Z,14.87
2022-10-09T04:50:34.094Z,15.33
2022-10-09T04:53:01.928Z,15.64
2022-10-09T04:55:28.977Z,15.77
2022-10-09T04:57:57.764Z,15.83
2022-10-09T05:00:24.500Z,15.85
2022-10-09T05:02:51.728Z,15.82
2022-10-09T05:05:18.907Z,15.81
2022-10-09T05:07:45.852Z,15.79
2022-10-09T05:10:12.797Z,15.83
2022-10-09T05:12:39.845Z,15.80
2022-10-09T05:15:07.507Z,15.78
2022-10-09T05:17:36.174Z,15.83
2022-10-09T05:20:03.855Z,16.02
2022-10-09T05:22:31.215Z,16.06
2022-10-09T05:24:58.973Z,16.12
2022-10-09T05:27:26.123Z,16.14
2022-10-09T05:29:53.375Z,16.54
2022-10-09T05:32:20.935Z,17.16
2022-10-09T05:34:47.879Z,17.46
2022-10-09T05:37:14.926Z,17.56
2022-10-09T05:39:42.078Z,17.50
2022-10-09T05:42:08.919Z,17.42
2022-10-09T05:44:36.685Z,17.37
2022-10-09T05:47:03.678Z,17.23
2022-10-09T05:49:30.882Z,17.08
2022-10-09T05:51:57.725Z,16.95
2022-10-09T05:54:24.981Z,16.77
2022-10-09T05:56:51.923Z,16.65
2022-10-09T05:59:19.332Z,16.56
2022-10-09T06:01:51.314Z,16.48
2022-10-09T06:04:23.306Z,16.35
2022-10-09T06:06:50.874Z,16.22
2022-10-09T06:09:22.328Z,16.16
2022-10-09T06:11:54.342Z,16.17
2022-10-09T06:14:22.211Z,16.27
2022-10-09T06:16:50.129Z,16.30
2022-10-09T06:19:19.321Z,16.38
2022-10-09T06:21:48.713Z,16.41
2022-10-09T06:24:28.611Z,16.42
2022-10-09T06:26:58.683Z,16.56
2022-10-09T06:29:26.256Z,16.70
2022-10-09T06:31:53.493Z,16.79
2022-10-09T06:34:21.065Z,16.79
2022-10-09T06:36:48.303Z,16.87
2022-10-09T06:39:15.355Z,16.99
2022-10-09T06:41:42.609Z,17.10
2022-10-09T06:44:23.951Z,17.18
2022-10-09T06:46:51.035Z,17.32
2022-10-09T06:49:18.084Z,17.46
2022-10-09T06:51:45.026Z,17.60
2022-10-09T06:54:14.643Z,17.68
2022-10-09T06:56:41.885Z,17.84
2022-10-09T06:59:10.469Z,18.00
2022-10-09T07:01:38.231Z,18.14
2022-10-09T07:04:09.282Z,18.22
2022-10-09T07:06:43.929Z,18.31
2022-10-09T07:09:12.875Z,18.46
2022-10-09T07:11:43.349Z,18.61
2022-10-09T07:14:12.123Z,18.70
2022-10-09T07:16:42.207Z,18.85
2022-10-09T07:19:12.348Z,19.00
2022-10-09T07:21:44.523Z,19.13
2022-10-09T07:24:12.875Z,19.28
2022-10-09T07:26:44.447Z,19.40
2022-10-09T07:29:14.007Z,19.49
2022-10-09T07:31:40.902Z,19.58
2022-10-09T07:34:08.352Z,19.69
2022-10-09T07:36:35.811Z,19.78
2022-10-09T07:39:05.223Z,19.87
2022-10-09T07:41:32.671Z,20.00
2022-10-09T07:44:01.561Z,20.08
2022-10-09T07:46:33.256Z,20.15
2022-10-09T07:49:02.003Z,20.20
2022-10-09T07:51:30.487Z,20.30
2022-10-09T07:53:59.478Z,20.44
2022-10-09T07:56:34.789Z,20.50
2022-10-09T07:59:04.912Z,20.60
2022-10-09T08:01:33.647Z,20.67
2022-10-09T08:04:01.697Z,20.74
2022-10-09T08:06:29.239Z,20.86
2022-10-09T08:08:58.968Z,20.92
2022-10-09T08:11:27.857Z,20.93
2022-10-09T08:13:56.137Z,20.99
2022-10-09T08:16:25.872Z,21.06
2022-10-09T08:18:58.085Z,21.20
2022-10-09T08:21:27.525Z,21.36
2022-10-09T08:23:56.509Z,21.44
2022-10-09T08:26:25.195Z,21.49
2022-10-09T08:28:54.990Z,21.53
2022-10-09T08:31:22.530Z,21.60
2022-10-09T08:33:54.120Z,21.63
2022-10-09T08:36:21.504Z,21.68
2022-10-09T08:38:49.561Z,21.73
2022-10-09T08:41:38.916Z,21.80
2022-10-09T08:44:35.456Z,21.87
2022-10-09T08:47:02.770Z,21.92
2022-10-09T08:50:05.390Z,21.98
2022-10-09T08:53:14.552Z,22.05
2022-10-09T08:56:04.248Z,22.19
2022-10-09T08:58:36.332Z,22.23
2022-10-09T09:01:31.242Z,22.31
2022-10-09T09:04:47.582Z,22.40
2022-10-09T09:07:16.616Z,22.49
2022-10-09T09:09:52.779Z,22.54
2022-10-09T09:12:33.550Z,22.62
2022-10-09T09:15:22.156Z,22.79
2022-10-09T09:18:01.178Z,22.93
2022-10-09T09:20:49.953Z,23.01
2022-10-09T09:23:16.909Z,23.10
2022-10-09T09:25:45.676Z,23.13
2022-10-09T09:28:21.452Z,23.14
2022-10-09T09:30:57.666Z,23.11
2022-10-09T09:33:41.046Z,23.08
2022-10-09T09:36:24.925Z,23.15
2022-10-09T09:39:40.831Z,23.19
2022-10-09T09:41:43.709Z,23.24
2022-10-09T09:44:12.881Z,23.33
2022-10-09T09:46:45.148Z,23.45
2022-10-09T09:49:20.858Z,23.57
2022-10-09T09:51:50.212Z,23.71
2022-10-09T09:54:23.862Z,23.82
2022-10-09T09:57:11.851Z,23.88
2022-10-09T09:59:43.456Z,23.91
2022-10-09T10:02:11.016Z,24.01
2022-10-09T10:04:54.934Z,24.20
2022-10-09T10:07:35.465Z,24.33
2022-10-09T10:10:09.728Z,24.43
2022-10-09T10:12:45.090Z,24.50
2022-10-09T10:15:30.162Z,24.54
2022-10-09T10:17:58.928Z,24.52
2022-10-09T10:20:28.329Z,24.45
2022-10-09T10:22:57.494Z,24.35
2022-10-09T10:25:30.821Z,24.31
2022-10-09T10:28:03.341Z,24.29
2022-10-09T10:30:31.584Z,24.24
2022-10-09T10:33:04.914Z,24.22
2022-10-09T10:35:37.444Z,24.23
2022-10-09T10:38:18.418Z,24.17
2022-10-09T10:41:13.727Z,24.04
2022-10-09T10:43:47.942Z,24.03
2022-10-09T10:46:30.692Z,24.05
2022-10-09T10:48:59.706Z,24.12
2022-10-09T10:51:44.975Z,24.20
2022-10-09T10:54:21.996Z,24.30
2022-10-09T10:56:56.431Z,24.43
2022-10-09T10:59:51.126Z,24.52
2022-10-09T11:02:23.928Z,24.68
2022-10-09T11:05:26.351Z,24.78
2022-10-09T11:08:06.436Z,24.80
2022-10-09T11:10:53.958Z,24.80
2022-10-09T11:13:55.724Z,24.78
2022-10-09T11:16:49.941Z,24.79
2022-10-09T11:19:45.423Z,24.68
2022-10-09T11:22:40.895Z,24.25
2022-10-09T11:25:19.440Z,23.97
2022-10-09T11:27:58.687Z,23.79
2022-10-09T11:30:28.113Z,23.63
2022-10-09T11:33:28.622Z,23.43
2022-10-09T11:36:01.778Z,23.35
2022-10-09T11:38:36.748Z,23.32
2022-10-09T11:41:07.433Z,23.18
2022-10-09T11:43:59.104Z,23.03
2022-10-09T11:46:28.917Z,22.82
2022-10-09T11:49:24.024Z,22.49
2022-10-09T11:52:14.210Z,22.16
2022-10-09T11:54:41.720Z,21.94
2022-10-09T11:57:14.973Z,21.82
2022-10-09T11:59:42.432Z,21.74
2022-10-09T12:02:24.513Z,21.68
2022-10-09T12:04:55.157Z,21.52
2022-10-09T12:10:20.478Z,21.26
2022-10-09T12:13:04.116Z,21.13
2022-10-09T12:15:52.154Z,20.90
2022-10-09T12:18:27.972Z,20.64
2022-10-09T12:20:57.600Z,20.35
2022-10-09T12:23:31.414Z,20.17
2022-10-09T12:26:01.054Z,20.05
2022-10-09T12:28:37.849Z,19.91
2022-10-09T12:31:15.473Z,19.79
2022-10-09T12:33:50.946Z,19.63
2022-10-09T12:36:29.542Z,19.36
2022-10-09T12:38:57.025Z,19.07
2022-10-09T12:41:32.033Z,19.32
2022-10-09T12:43:59.721Z,19.68
2022-10-09T12:46:38.746Z,19.82
2022-10-09T12:49:20.032Z,19.71
2022-10-09T12:51:56.320Z,19.57
2022-10-09T12:54:26.513Z,19.37
2022-10-09T12:56:56.633Z,19.28
2022-10-09T12:59:26.855Z,19.16
2022-10-09T13:01:58.343Z,18.90
2022-10-09T13:04:30.585Z,19.11
2022-10-09T13:07:15.337Z,19.50
2022-10-09T13:09:42.330Z,19.64
2022-10-09T13:12:35.672Z,19.51
2022-10-09T13:15:06.725Z,19.33
2022-10-09T13:17:37.950Z,19.16
2022-10-09T13:20:11.931Z,19.07
2022-10-09T13:22:39.388Z,18.96
2022-10-09T13:25:06.756Z,19.21
2022-10-09T13:27:39.233Z,19.49
2022-10-09T13:30:07.626Z,19.63
2022-10-09T13:32:35.688Z,19.51
2022-10-09T13:35:03.346Z,19.37
2022-10-09T13:37:30.391Z,19.18
2022-10-09T13:39:59.282Z,19.02
2022-10-09T13:42:30.813Z,18.76
2022-10-09T13:44:58.089Z,18.96
2022-10-09T13:47:25.065Z,19.36
2022-10-09T13:49:51.867Z,19.48
2022-10-09T13:52:18.646Z,19.47
2022-10-09T13:54:45.870Z,19.32
2022-10-09T13:57:13.325Z,19.11
2022-10-09T13:59:41.575Z,18.96
2022-10-09T14:02:10.992Z,18.78
2022-10-09T14:04:38.198Z,19.21
2022-10-09T14:07:08.447Z,19.55
2022-10-09T14:09:35.606Z,19.60
2022-10-09T14:12:02.766Z,19.49
2022-10-09T14:14:29.771Z,19.28
2022-10-09T14:16:58.228Z,19.16
2022-10-09T14:19:27.175Z,18.96
2022-10-09T14:21:55.500Z,18.80
2022-10-09T14:24:24.038Z,19.09
2022-10-09T14:26:51.897Z,19.47
2022-10-09T14:29:19.279Z,19.61
2022-10-09T14:31:48.477Z,19.58
2022-10-09T14:34:15.523Z,19.35
2022-10-09T14:36:42.775Z,19.19
2022-10-09T14:39:09.627Z,18.98
2022-10-09T14:41:38.127Z,18.71
2022-10-09T14:44:05.588Z,18.90
2022-10-09T14:46:37.315Z,19.33
2022-10-09T14:49:07.583Z,19.44
2022-10-09T14:51:37.517Z,19.35
2022-10-09T14:54:06.239Z,19.13
2022-10-09T14:56:34.176Z,18.98
2022-10-09T14:59:01.183Z,18.73
2022-10-09T15:01:30.762Z,18.92
2022-10-09T15:04:00.941Z,19.25
2022-10-09T15:06:28.439Z,19.33
2022-10-09T15:09:02.992Z,19.26
2022-10-09T15:11:34.519Z,19.10
2022-10-09T15:14:03.011Z,18.92
2022-10-09T15:16:30.657Z,18.68
2022-10-09T15:18:59.045Z,18.87
2022-10-09T15:21:29.593Z,19.21
2022-10-09T15:23:58.358Z,19.38
2022-10-09T15:26:27.832Z,19.32
2022-10-09T15:28:55.244Z,19.14
2022-10-09T15:31:31.067Z,18.98
2022-10-09T15:34:01.085Z,18.80
2022-10-09T15:36:32.735Z,18.58
2022-10-09T15:39:05.756Z,18.86
2022-10-09T15:41:39.819Z,19.33
2022-10-09T15:44:14.146Z,19.56
2022-10-09T15:46:41.250Z,19.48
2022-10-09T15:49:08.626Z,19.32
2022-10-09T15:51:35.542Z,19.09
2022-10-09T15:54:03.853Z,18.79
2022-10-09T15:56:32.304Z,18.94
2022-10-09T15:59:00.941Z,19.22
2022-10-09T16:01:28.018Z,19.34
2022-10-09T16:03:54.919Z,19.28
2022-10-09T16:06:23.644Z,19.16
2022-10-09T16:08:56.312Z,18.95
2022-10-09T16:11:26.278Z,18.71
2022-10-09T16:13:55.692Z,18.86
2022-10-09T16:16:25.080Z,19.14
2022-10-09T16:18:52.921Z,19.25
2022-10-09T16:21:26.504Z,19.18
2022-10-09T16:23:58.852Z,19.01
2022-10-09T16:26:28.760Z,18.85
2022-10-09T16:28:56.876Z,18.53
2022-10-09T16:31:30.038Z,18.61
2022-10-09T16:33:58.179Z,18.86
2022-10-09T16:36:25.544Z,18.91
2022-10-09T16:38:53.918Z,18.74
2022-10-09T16:41:22.330Z,18.51
2022-10-09T16:43:51.714Z,18.30
2022-10-09T16:46:26.308Z,18.05
2022-10-09T16:48:56.320Z,18.18
2022-10-09T16:51:26.925Z,18.40
2022-10-09T16:53:57.953Z,18.44
2022-10-09T16:56:28.034Z,18.29
2022-10-09T16:58:57.610Z,18.01
2022-10-09T17:01:26.153Z,17.79
2022-10-09T17:03:54.207Z,17.51
2022-10-09T17:06:23.084Z,17.64
2022-10-09T17:08:52.784Z,17.94
2022-10-09T17:11:21.919Z,17.98
2022-10-09T17:13:49.587Z,17.86
2022-10-09T17:16:20.927Z,17.65
2022-10-09T17:18:48.300Z,17.42
2022-10-09T17:21:17.178Z,17.12
2022-10-09T17:23:47.296Z,17.26
2022-10-09T17:26:18.147Z,17.51
2022-10-09T17:28:46.937Z,17.58
2022-10-09T17:31:20.388Z,17.48
2022-10-09T17:33:48.710Z,17.26
2022-10-09T17:36:19.041Z,17.08
2022-10-09T17:38:48.569Z,16.87
2022-10-09T17:41:18.851Z,17.00
2022-10-09T17:43:46.815Z,17.33
2022-10-09T17:46:14.786Z,17.48
2022-10-09T17:48:44.698Z,17.49
2022-10-09T17:51:21.558Z,17.25
2022-10-09T17:53:48.660Z,16.90
2022-10-09T17:56:15.933Z,16.60
2022-10-09T17:58:44.039Z,16.72
2022-10-09T18:01:11.290Z,16.99
2022-10-09T18:03:38.353Z,17.13
2022-10-09T18:06:07.918Z,17.02
2022-10-09T18:08:36.952Z,16.87
2022-10-09T18:11:07.586Z,16.70
2022-10-09T18:13:36.668Z,16.44
2022-10-09T18:16:09.865Z,16.66
2022-10-09T18:18:37.123Z,17.05
2022-10-09T18:21:10.819Z,17.32
2022-10-09T18:23:39.012Z,17.20
2022-10-09T18:26:08.225Z,17.06
2022-10-09T18:28:37.087Z,16.83
2022-10-09T18:31:08.628Z,16.64
2022-10-09T18:33:37.942Z,16.90
2022-10-09T18:36:13.287Z,17.29
2022-10-09T18:38:40.363Z,17.39
2022-10-09T18:41:08.675Z,17.33
2022-10-09T18:43:35.996Z,17.20
2022-10-09T18:46:03.421Z,17.03
2022-10-09T18:48:34.640Z,16.89
2022-10-09T18:51:04.886Z,16.62
2022-10-09T18:53:37.285Z,16.85
2022-10-09T18:56:05.536Z,17.23
2022-10-09T18:58:35.019Z,17.33
2022-10-09T19:01:06.635Z,17.38
2022-10-09T19:03:35.995Z,17.32
2022-10-09T19:06:04.302Z,17.10
2022-10-09T19:08:31.319Z,16.88
2022-10-09T19:10:58.148Z,16.70
2022-10-09T19:13:24.972Z,16.86
2022-10-09T19:15:55.533Z,17.14
2022-10-09T19:18:23.495Z,17.23
2022-10-09T19:20:52.005Z,17.10
2022-10-09T19:23:18.933Z,16.81
2022-10-09T19:25:48.805Z,16.60
2022-10-09T19:28:16.125Z,16.37
2022-10-09T19:30:44.280Z,16.10
2022-10-09T19:33:11.652Z,16.25
2022-10-09T19:35:49.469Z,16.59
2022-10-09T19:38:17.449Z,16.69
2022-10-09T19:40:45.163Z,16.64
2022-10-09T19:43:14.015Z,16.55
2022-10-09T19:45:40.920Z,16.33
2022-10-09T19:48:10.609Z,16.08
2022-10-09T19:50:43.370Z,15.85
2022-10-09T19:53:11.248Z,16.07
2022-10-09T19:55:38.671Z,16.45
2022-10-09T19:58:06.135Z,16.57
2022-10-09T20:00:33.036Z,16.49
2022-10-09T20:03:02.212Z,16.34
2022-10-09T20:05:29.050Z,16.05
2022-10-09T20:07:55.882Z,15.77
2022-10-09T20:10:24.747Z,15.52
2022-10-09T20:12:51.886Z,15.81
2022-10-09T20:15:22.124Z,16.14
2022-10-09T20:17:51.947Z,16.20
2022-10-09T20:20:19.158Z,16.14
2022-10-09T20:22:46.380Z,15.99
2022-10-09T20:25:13.107Z,15.77
2022-10-09T20:27:40.219Z,15.61
2022-10-09T20:30:07.797Z,15.34
2022-10-09T20:32:36.379Z,15.51
2022-10-09T20:35:04.878Z,15.91
2022-10-09T20:37:34.371Z,16.04
2022-10-09T20:40:01.511Z,15.92
2022-10-09T20:42:28.635Z,15.73
2022-10-09T20:44:56.755Z,15.53
2022-10-09T20:47:23.735Z,15.35
2022-10-09T20:49:50.453Z,15.15
2022-10-09T20:52:17.287Z,15.47
2022-10-09T20:54:44.839Z,15.89
2022-10-09T20:57:11.581Z,16.06
2022-10-09T20:59:38.295Z,16.05
2022-10-09T21:02:05.460Z,15.92
2022-10-09T21:04:34.180Z,15.73
2022-10-09T21:07:01.044Z,15.45
2022-10-09T21:09:32.396Z,15.18
2022-10-09T21:12:03.100Z,15.47
2022-10-09T21:14:30.131Z,15.84
2022-10-09T21:16:56.978Z,15.88
2022-10-09T21:19:25.658Z,15.77
2022-10-09T21:21:52.509Z,15.62
2022-10-09T21:24:19.330Z,15.50
2022-10-09T21:26:48.240Z,15.39
2022-10-09T21:29:15.131Z,15.13
2022-10-09T21:31:41.935Z,15.34
2022-10-09T21:34:08.722Z,15.75
2022-10-09T21:36:51.072Z,15.92
2022-10-09T21:39:26.618Z,15.78
2022-10-09T21:41:53.739Z,15.56
2022-10-09T21:44:20.636Z,15.28
2022-10-09T21:46:47.574Z,15.10
2022-10-09T21:49:23.249Z,14.86
2022-10-09T21:51:50.878Z,15.25
2022-10-09T21:54:20.729Z,15.69
2022-10-09T21:56:48.123Z,15.80
2022-10-09T21:59:14.911Z,15.66
2022-10-09T22:01:41.832Z,15.49
2022-10-09T22:04:08.712Z,15.31
2022-10-09T22:06:40.623Z,15.12
2022-10-09T22:09:07.364Z,14.85
2022-10-09T22:11:34.183Z,15.10
2022-10-09T22:14:01.665Z,15.50
2022-10-09T22:16:28.736Z,15.60
2022-10-09T22:18:59.660Z,15.61
2022-10-09T22:21:26.449Z,15.52
2022-10-09T22:23:53.333Z,15.33
2022-10-09T22:26:22.846Z,15.16
2022-10-09T22:28:50.041Z,14.92
2022-10-09T22:31:21.552Z,15.21
2022-10-09T22:34:00.755Z,15.63
2022-10-09T22:36:31.122Z,15.79
2022-10-09T22:39:00.911Z,15.79
2022-10-09T22:41:29.502Z,15.69
2022-10-09T22:43:58.388Z,15.52
2022-10-09T22:46:29.120Z,15.33
2022-10-09T22:48:57.294Z,15.13
2022-10-09T22:51:26.696Z,15.28
2022-10-09T22:53:58.658Z,15.64
2022-10-09T22:56:30.128Z,15.74
2022-10-09T22:58:57.975Z,15.64
2022-10-09T23:01:34.597Z,15.49
2022-10-09T23:04:04.974Z,15.25
2022-10-09T23:06:32.430Z,15.01
2022-10-09T23:08:59.887Z,14.79
2022-10-09T23:11:27.141Z,14.54
2022-10-09T23:13:57.966Z,14.76
2022-10-09T23:16:25.844Z,15.20
2022-10-09T23:18:53.096Z,15.35
2022-10-09T23:21:22.090Z,15.24
2022-10-09T23:23:50.061Z,15.03
2022-10-09T23:26:20.163Z,14.80
2022-10-09T23:28:52.376Z,14.58
2022-10-09T23:31:21.251Z,14.32
2022-10-09T23:33:49.819Z,14.58
2022-10-09T23:36:20.758Z,14.96
2022-10-09T23:38:48.600Z,15.08
2022-10-09T23:41:18.411Z,14.96
2022-10-09T23:43:46.720Z,14.76
2022-10-09T23:46:19.391Z,14.55
2022-10-09T23:48:47.767Z,14.34
2022-10-09T23:51:17.913Z,14.07
2022-10-09T23:53:46.065Z,14.31
2022-10-09T23:56:20.996Z,14.67
2022-10-09T23:58:48.453Z,14.70
